Weather at Cadjehoun Airport

Public forecast

Using degrees Celsius for public forecast. Weather courtesy of forecast.io.

Current aviation weather report (METAR) for Cadjehoun Airport

2024/05/28 03:00 (retrieved 1 hour ago)

DBBB 280300Z 24009KT 9999 SCT013 29/25 Q1011 NOSIG

Closest aviation forecast (TAF) to Cadjehoun Airport

Forecast is more than 12 hours old.

Closest forecast is Lomé–Tokoin International Airport, 68.4 nm (126.7 km) W.

2024/05/27 12:24 (retrieved 16 hours ago)

TAF DXXX 271100Z 2712/2818 20010KT 9999 FEW015 BECMG 2722/2724 26005KT BECMG 2809/2811 20010KT